createdAt,value
2019-02-18T00:00:39.246Z,3.95
2019-02-18T00:03:10.279Z,3.52
2019-02-18T00:05:41.344Z,2.52
2019-02-18T00:08:12.373Z,2.75
2019-02-18T00:10:43.435Z,2.70
2019-02-18T00:13:14.482Z,2.85
2019-02-18T00:15:45.542Z,2.80
2019-02-18T00:18:16.578Z,2.10
2019-02-18T00:20:47.643Z,2.67
2019-02-18T00:23:18.680Z,2.85
2019-02-18T00:25:49.749Z,2.85
2019-02-18T00:28:20.818Z,3.08
2019-02-18T00:30:51.891Z,2.52
2019-02-18T00:33:23.008Z,3.40
2019-02-18T00:35:55.066Z,2.92
2019-02-18T00:38:26.171Z,2.72
2019-02-18T00:40:57.278Z,2.08
2019-02-18T00:43:28.310Z,2.45
2019-02-18T00:45:59.310Z,2.77
2019-02-18T00:48:30.346Z,2.27
2019-02-18T00:51:01.381Z,1.65
2019-02-18T00:53:32.459Z,2.12
2019-02-18T00:56:03.567Z,2.15
2019-02-18T00:58:34.704Z,2.08
2019-02-18T01:01:05.736Z,2.62
2019-02-18T01:03:36.796Z,2.85
2019-02-18T01:06:07.839Z,1.70
2019-02-18T01:08:38.916Z,2.25
2019-02-18T01:11:09.957Z,1.50
2019-02-18T01:13:41.019Z,1.67
2019-02-18T01:16:12.043Z,2.02
2019-02-18T01:18:43.114Z,1.90
2019-02-18T01:21:14.249Z,1.52
2019-02-18T01:23:45.320Z,1.12
2019-02-18T01:26:16.361Z,1.75
2019-02-18T01:28:47.354Z,2.00
2019-02-18T01:31:18.428Z,2.20
2019-02-18T01:33:50.477Z,3.05
2019-02-18T01:36:23.178Z,2.45
2019-02-18T01:38:54.407Z,1.90
2019-02-18T01:41:25.473Z,2.37
2019-02-18T01:43:56.513Z,1.50
2019-02-18T01:46:27.586Z,1.92
2019-02-18T01:48:58.614Z,2.02
2019-02-18T01:51:29.687Z,3.00
2019-02-18T01:54:00.719Z,1.40
2019-02-18T01:56:31.781Z,1.62
2019-02-18T01:59:02.817Z,1.22
2019-02-18T02:01:33.886Z,1.35
2019-02-18T02:04:04.849Z,1.22
2019-02-18T02:06:35.923Z,1.82
2019-02-18T02:09:09.819Z,1.47
2019-02-18T02:11:40.884Z,1.98
2019-02-18T02:14:11.843Z,2.20
2019-02-18T02:16:43.127Z,2.02
2019-02-18T02:19:14.205Z,2.10
2019-02-18T02:21:45.160Z,2.17
2019-02-18T02:24:16.225Z,1.92
2019-02-18T02:26:47.267Z,2.45
2019-02-18T02:29:18.334Z,1.90
2019-02-18T02:31:49.370Z,1.67
2019-02-18T02:34:20.433Z,1.25
2019-02-18T02:36:51.471Z,1.32
2019-02-18T02:39:22.536Z,1.50
2019-02-18T02:41:53.579Z,1.50
2019-02-18T02:44:24.667Z,1.62
2019-02-18T02:46:55.705Z,2.27
2019-02-18T02:49:26.764Z,1.92
2019-02-18T02:51:57.733Z,1.75
2019-02-18T02:54:28.800Z,1.55
2019-02-18T02:56:59.841Z,1.50
2019-02-18T02:59:30.919Z,1.90
2019-02-18T03:02:01.953Z,1.95
2019-02-18T03:04:33.022Z,1.67
2019-02-18T03:07:04.047Z,1.75
2019-02-18T03:09:35.051Z,1.70
2019-02-18T03:12:06.089Z,1.67
2019-02-18T03:14:37.151Z,2.05
2019-02-18T03:17:08.265Z,1.65
2019-02-18T03:19:39.331Z,2.02
2019-02-18T03:22:10.359Z,1.50
2019-02-18T03:25:02.114Z,1.70
2019-02-18T03:27:33.149Z,2.05
2019-02-18T03:30:34.234Z,2.33
2019-02-18T03:33:08.073Z,1.95
2019-02-18T03:35:39.148Z,1.70
2019-02-18T03:38:10.168Z,1.47
2019-02-18T03:40:41.230Z,2.00
2019-02-18T03:43:12.268Z,1.90
2019-02-18T03:45:44.342Z,2.20
2019-02-18T03:48:15.371Z,1.45
2019-02-18T03:50:46.440Z,1.52
2019-02-18T03:53:17.462Z,1.85
2019-02-18T03:55:48.534Z,2.80
2019-02-18T03:58:19.598Z,2.47
2019-02-18T04:00:51.824Z,1.50
2019-02-18T04:03:22.886Z,1.40
2019-02-18T04:05:53.964Z,1.32
2019-02-18T04:08:25.038Z,1.67
2019-02-18T04:10:56.074Z,1.60
2019-02-18T04:13:27.141Z,1.30
2019-02-18T04:15:58.168Z,1.40
2019-02-18T04:18:29.174Z,1.40
2019-02-18T04:21:00.209Z,1.60
2019-02-18T04:23:31.273Z,1.12
2019-02-18T04:26:02.235Z,1.00
2019-02-18T04:28:33.294Z,1.27
2019-02-18T04:31:04.330Z,1.30
2019-02-18T04:33:35.403Z,2.02
2019-02-18T04:36:06.441Z,1.87
2019-02-18T04:38:37.509Z,1.00
2019-02-18T04:41:09.539Z,1.27
2019-02-18T04:43:42.175Z,2.02
2019-02-18T04:46:13.290Z,2.20
2019-02-18T04:48:44.361Z,2.15
2019-02-18T04:51:15.443Z,1.70
2019-02-18T04:53:46.483Z,1.40
2019-02-18T04:56:17.565Z,1.70
2019-02-18T04:58:48.677Z,1.70
2019-02-18T05:01:19.760Z,2.15
2019-02-18T05:03:50.731Z,2.12
2019-02-18T05:06:21.743Z,2.08
2019-02-18T05:08:52.707Z,2.33
2019-02-18T05:11:23.781Z,2.30
2019-02-18T05:13:54.822Z,1.95
2019-02-18T05:16:25.890Z,1.95
2019-02-18T05:18:56.942Z,2.00
2019-02-18T05:21:28.090Z,2.50
2019-02-18T05:23:59.127Z,2.47
2019-02-18T05:26:30.202Z,1.95
2019-02-18T05:29:01.260Z,3.15
2019-02-18T05:31:32.389Z,2.45
2019-02-18T05:34:03.435Z,3.05
2019-02-18T05:36:34.505Z,3.25
2019-02-18T05:39:17.375Z,2.45
2019-02-18T05:41:40.097Z,3.87
2019-02-18T05:44:11.145Z,2.40
2019-02-18T05:46:42.214Z,2.33
2019-02-18T05:49:13.257Z,2.15
2019-02-18T05:51:44.324Z,3.15
2019-02-18T05:54:15.380Z,1.95
2019-02-18T05:56:47.541Z,1.98
2019-02-18T05:59:18.606Z,1.80
2019-02-18T06:01:49.676Z,1.72
2019-02-18T06:04:20.742Z,2.20
2019-02-18T06:06:51.721Z,1.87
2019-02-18T06:09:29.938Z,2.00
2019-02-18T06:11:55.531Z,2.60
2019-02-18T06:14:26.603Z,2.30
2019-02-18T06:16:57.655Z,2.02
2019-02-18T06:19:28.726Z,1.90
2019-02-18T06:21:59.838Z,1.65
2019-02-18T06:24:30.916Z,3.17
2019-02-18T06:27:01.964Z,3.15
2019-02-18T06:29:33.036Z,2.67
2019-02-18T06:32:04.076Z,2.17
2019-02-18T06:34:35.140Z,4.70
2019-02-18T06:37:06.221Z,2.22
2019-02-18T06:39:41.550Z,2.00
2019-02-18T06:42:11.273Z,2.77
2019-02-18T06:44:44.025Z,2.75
2019-02-18T06:47:16.259Z,2.15
2019-02-18T06:49:47.328Z,1.95
2019-02-18T06:52:18.360Z,2.70
2019-02-18T06:54:49.353Z,2.47
2019-02-18T06:57:31.299Z,2.87
2019-02-18T07:00:02.394Z,2.90
2019-02-18T07:02:35.996Z,2.05
2019-02-18T07:05:08.939Z,2.55
2019-02-18T07:07:41.555Z,3.08
2019-02-18T07:10:14.141Z,2.70
2019-02-18T07:12:46.484Z,3.37
2019-02-18T07:15:17.543Z,3.25
2019-02-18T07:17:48.576Z,2.77
2019-02-18T07:20:19.653Z,4.05
2019-02-18T07:22:50.714Z,3.12
2019-02-18T07:25:21.807Z,2.40
2019-02-18T07:27:52.879Z,3.25
2019-02-18T07:30:23.919Z,3.77
2019-02-18T07:32:54.992Z,2.95
2019-02-18T07:35:25.951Z,1.95
2019-02-18T07:37:57.028Z,3.33
2019-02-18T07:40:28.069Z,2.85
2019-02-18T07:42:59.139Z,2.58
2019-02-18T07:45:30.192Z,3.15
2019-02-18T07:48:01.250Z,2.87
2019-02-18T07:50:32.293Z,3.17
2019-02-18T07:53:03.365Z,3.58
2019-02-18T07:55:34.416Z,2.95
2019-02-18T07:58:05.489Z,4.12
2019-02-18T08:00:36.525Z,2.85
2019-02-18T08:03:07.596Z,2.95
2019-02-18T08:05:38.666Z,3.12
2019-02-18T08:08:09.734Z,3.37
2019-02-18T08:10:40.761Z,2.45
2019-02-18T08:13:11.836Z,2.42
2019-02-18T08:15:42.874Z,2.33
2019-02-18T08:18:15.512Z,2.40
2019-02-18T08:20:47.581Z,2.67
2019-02-18T08:23:18.661Z,2.70
2019-02-18T08:25:49.782Z,3.67
2019-02-18T08:28:20.822Z,3.80
2019-02-18T08:30:51.879Z,3.20
2019-02-18T08:33:22.911Z,3.00
2019-02-18T08:35:53.979Z,2.65
2019-02-18T08:38:25.004Z,2.80
2019-02-18T08:40:56.072Z,2.98
2019-02-18T08:43:27.099Z,2.33
2019-02-18T08:45:58.151Z,2.87
2019-02-18T08:48:29.185Z,2.45
2019-02-18T08:51:00.241Z,2.77
2019-02-18T08:53:31.372Z,3.00
2019-02-18T08:56:02.430Z,2.45
2019-02-18T08:58:33.499Z,2.02
2019-02-18T09:01:04.576Z,2.58
2019-02-18T09:03:35.667Z,2.50
2019-02-18T09:06:06.722Z,2.40
2019-02-18T09:08:37.755Z,2.45
2019-02-18T09:11:08.817Z,2.50
2019-02-18T09:13:39.852Z,2.30
2019-02-18T09:16:10.914Z,1.62
2019-02-18T09:18:41.939Z,2.47
2019-02-18T09:21:13.002Z,2.47
2019-02-18T09:23:45.620Z,3.37
2019-02-18T09:26:17.174Z,2.62
2019-02-18T09:28:48.190Z,2.20
2019-02-18T09:31:20.749Z,2.05
2019-02-18T09:33:51.706Z,2.52
2019-02-18T09:36:22.758Z,2.02
2019-02-18T09:38:53.883Z,1.65
2019-02-18T09:41:24.945Z,2.20
2019-02-18T09:43:55.975Z,0.90
2019-02-18T09:46:27.024Z,1.20
2019-02-18T09:48:58.006Z,1.50
2019-02-18T09:51:29.043Z,1.42
2019-02-18T09:54:01.106Z,1.37
2019-02-18T09:56:32.123Z,1.37
2019-02-18T09:59:03.197Z,1.62
2019-02-18T10:01:34.337Z,1.80
2019-02-18T10:04:05.391Z,2.15
2019-02-18T10:06:36.431Z,1.90
2019-02-18T10:09:08.087Z,2.15
2019-02-18T10:11:39.111Z,1.40
2019-02-18T10:14:10.161Z,1.32
2019-02-18T10:16:41.118Z,1.67
2019-02-18T10:19:13.173Z,1.72
2019-02-18T10:21:44.121Z,1.35
2019-02-18T10:24:15.101Z,1.52
2019-02-18T10:26:46.129Z,1.00
2019-02-18T10:29:17.188Z,2.22
2019-02-18T10:31:48.265Z,1.87
2019-02-18T10:34:19.372Z,1.40
2019-02-18T10:36:50.398Z,1.85
2019-02-18T10:39:21.478Z,1.80
2019-02-18T10:41:52.518Z,1.20
2019-02-18T10:44:23.590Z,0.75
2019-02-18T10:46:54.654Z,1.22
2019-02-18T10:49:25.699Z,1.30
2019-02-18T10:51:57.052Z,1.47
2019-02-18T10:54:28.141Z,1.20
2019-02-18T10:56:59.261Z,1.40
2019-02-18T10:59:30.274Z,1.33
2019-02-18T11:02:01.315Z,2.33
2019-02-18T11:04:32.687Z,0.90
2019-02-18T11:07:03.729Z,1.80
2019-02-18T11:09:34.738Z,2.00
2019-02-18T11:12:05.703Z,1.50
2019-02-18T11:14:36.632Z,2.30
2019-02-18T11:17:07.666Z,1.37
2019-02-18T11:19:38.678Z,1.73
2019-02-18T11:22:09.718Z,2.47
2019-02-18T11:24:40.903Z,1.63
2019-02-18T11:27:12.101Z,1.53
2019-02-18T11:29:43.102Z,1.40
2019-02-18T11:32:14.131Z,1.00
2019-02-18T11:34:45.139Z,1.27
2019-02-18T11:37:16.238Z,1.00
2019-02-18T11:39:47.237Z,0.83
2019-02-18T11:42:18.271Z,0.87
2019-02-18T11:44:49.351Z,0.60
2019-02-18T11:47:20.374Z,1.00
2019-02-18T11:49:51.403Z,0.90
2019-02-18T11:52:22.436Z,0.63
2019-02-18T11:54:53.374Z,0.67
2019-02-18T11:57:24.403Z,0.97
2019-02-18T11:59:55.432Z,1.03
2019-02-18T12:02:26.460Z,7.70
2019-02-18T12:04:57.499Z,0.80
2019-02-18T12:07:28.577Z,1.13
2019-02-18T12:09:59.616Z,0.87
2019-02-18T12:12:30.696Z,0.90
2019-02-18T12:15:02.155Z,0.77
2019-02-18T12:17:33.232Z,0.93
2019-02-18T12:20:05.568Z,0.90
2019-02-18T12:22:36.569Z,0.97
2019-02-18T12:25:07.996Z,0.90
2019-02-18T12:27:39.094Z,0.93
2019-02-18T12:30:18.418Z,0.80
2019-02-18T12:32:49.429Z,0.60
2019-02-18T12:35:30.246Z,0.80
2019-02-18T12:37:55.572Z,1.30
2019-02-18T12:40:25.885Z,1.30
2019-02-18T12:42:56.914Z,1.07
2019-02-18T12:45:27.999Z,1.30
2019-02-18T12:47:59.092Z,1.10
2019-02-18T12:50:30.133Z,1.13
2019-02-18T12:53:01.324Z,0.93
2019-02-18T12:55:32.640Z,1.30
2019-02-18T12:58:03.817Z,1.23
2019-02-18T13:00:35.124Z,1.20
2019-02-18T13:03:06.422Z,1.30
2019-02-18T13:05:38.537Z,0.90
2019-02-18T13:08:09.617Z,1.13
2019-02-18T13:10:40.733Z,1.30
2019-02-18T13:13:11.840Z,0.77
2019-02-18T13:15:42.913Z,1.40
2019-02-18T13:18:14.023Z,0.70
2019-02-18T13:20:45.100Z,1.13
2019-02-18T13:23:16.138Z,1.10
2019-02-18T13:25:47.620Z,0.73
2019-02-18T13:28:18.945Z,1.10
2019-02-18T13:30:50.024Z,0.90
2019-02-18T13:33:21.187Z,0.83
2019-02-18T13:35:52.470Z,0.97
2019-02-18T13:38:23.576Z,0.90
2019-02-18T13:40:54.675Z,1.13
2019-02-18T13:43:25.775Z,1.10
2019-02-18T13:45:56.866Z,1.30
2019-02-18T13:48:28.979Z,1.10
2019-02-18T13:50:59.979Z,1.17
2019-02-18T13:53:31.094Z,1.13
2019-02-18T13:56:02.167Z,1.17
2019-02-18T13:58:33.130Z,1.13
2019-02-18T14:01:04.130Z,1.43
2019-02-18T14:03:35.160Z,0.90
2019-02-18T14:06:06.360Z,1.03
2019-02-18T14:08:37.474Z,1.27
2019-02-18T14:11:08.468Z,0.97
2019-02-18T14:13:39.504Z,1.60
2019-02-18T14:16:10.535Z,1.03
2019-02-18T14:18:41.542Z,1.77
2019-02-18T14:21:12.569Z,1.87
2019-02-18T14:23:43.577Z,1.37
2019-02-18T14:26:14.679Z,1.60
2019-02-18T14:28:45.961Z,1.30
2019-02-18T14:31:16.989Z,1.43
2019-02-18T14:33:47.999Z,1.43
2019-02-18T14:36:19.102Z,1.83
2019-02-18T14:38:50.106Z,1.73
2019-02-18T14:41:21.426Z,1.57
2019-02-18T14:43:52.513Z,1.60
2019-02-18T14:46:23.548Z,2.20
2019-02-18T14:48:54.482Z,1.37
2019-02-18T14:51:25.589Z,1.60
2019-02-18T14:53:57.199Z,1.80
2019-02-18T14:56:28.229Z,1.70
2019-02-18T14:58:59.268Z,1.70
2019-02-18T15:01:30.280Z,1.93
2019-02-18T15:04:01.319Z,1.93
2019-02-18T15:06:32.398Z,2.70
2019-02-18T15:09:03.957Z,1.97
2019-02-18T15:11:36.138Z,3.00
2019-02-18T15:14:07.193Z,2.80
2019-02-18T15:16:38.277Z,2.87
2019-02-18T15:19:09.393Z,2.73
2019-02-18T15:21:40.479Z,3.27
2019-02-18T15:24:11.974Z,2.90
2019-02-18T15:26:43.060Z,3.13
2019-02-18T15:29:14.103Z,2.03
2019-02-18T15:31:45.118Z,1.83
2019-02-18T15:34:16.333Z,2.03
2019-02-18T15:36:47.339Z,1.97
2019-02-18T15:39:18.375Z,1.63
2019-02-18T15:41:49.314Z,2.07
2019-02-18T15:44:21.341Z,2.00
2019-02-18T15:46:52.334Z,2.77
2019-02-18T15:49:23.373Z,1.90
2019-02-18T15:51:54.375Z,2.60
2019-02-18T15:54:25.412Z,1.90
2019-02-18T15:56:56.423Z,2.40
2019-02-18T15:59:27.667Z,1.97
2019-02-18T16:01:58.760Z,2.67
2019-02-18T16:04:29.872Z,2.13
2019-02-18T16:07:00.886Z,3.37
2019-02-18T16:09:31.895Z,2.50
2019-02-18T16:12:03.214Z,4.23
2019-02-18T16:14:34.331Z,2.90
2019-02-18T16:17:05.382Z,5.40
2019-02-18T16:19:36.398Z,3.83
2019-02-18T16:22:07.492Z,3.30
2019-02-18T16:24:38.964Z,4.87
2019-02-18T16:27:10.105Z,5.35
2019-02-18T16:29:41.144Z,6.05
2019-02-18T16:32:12.223Z,6.28
2019-02-18T16:34:43.333Z,5.15
2019-02-18T16:37:14.988Z,4.75
2019-02-18T16:39:46.112Z,4.50
2019-02-18T16:42:17.181Z,5.00
2019-02-18T16:44:48.225Z,3.75
2019-02-18T16:47:19.312Z,3.55
2019-02-18T16:49:50.730Z,3.70
2019-02-18T16:52:21.800Z,4.47
2019-02-18T16:54:52.842Z,4.90
2019-02-18T16:57:23.905Z,4.42
2019-02-18T16:59:55.045Z,6.42
2019-02-18T17:02:26.138Z,5.00
2019-02-18T17:04:57.204Z,6.25
2019-02-18T17:07:28.165Z,6.62
2019-02-18T17:09:59.231Z,4.28
2019-02-18T17:12:30.255Z,5.05
2019-02-18T17:15:01.315Z,5.25
2019-02-18T17:17:32.341Z,4.85
2019-02-18T17:20:03.322Z,4.70
2019-02-18T17:22:34.424Z,7.35
2019-02-18T17:25:08.086Z,5.45
2019-02-18T17:27:39.184Z,4.65
2019-02-18T17:30:17.392Z,4.50
2019-02-18T17:32:48.502Z,7.83
2019-02-18T17:35:19.564Z,8.53
2019-02-18T17:37:50.593Z,7.10
2019-02-18T17:40:21.729Z,9.08
2019-02-18T17:42:52.753Z,8.45
2019-02-18T17:45:23.892Z,10.68
2019-02-18T17:47:55.005Z,13.95
2019-02-18T17:50:26.078Z,10.32
2019-02-18T17:52:58.209Z,13.78
2019-02-18T17:55:29.390Z,13.35
2019-02-18T17:58:00.462Z,13.65
2019-02-18T18:00:35.837Z,11.95
2019-02-18T18:03:07.003Z,10.93
2019-02-18T18:05:38.145Z,9.48
2019-02-18T18:08:09.315Z,10.98
2019-02-18T18:10:40.431Z,10.95
2019-02-18T18:13:11.497Z,12.90
2019-02-18T18:15:42.607Z,12.80
2019-02-18T18:18:13.696Z,14.25
2019-02-18T18:20:44.812Z,10.63
2019-02-18T18:23:15.881Z,9.30
2019-02-18T18:25:48.509Z,11.33
2019-02-18T18:28:19.623Z,10.78
2019-02-18T18:30:50.749Z,10.98
2019-02-18T18:33:22.135Z,9.18
2019-02-18T18:35:54.170Z,10.20
2019-02-18T18:38:25.239Z,10.30
2019-02-18T18:40:56.273Z,12.95
2019-02-18T18:43:33.586Z,13.75
2019-02-18T18:46:00.079Z,12.98
2019-02-18T18:48:31.166Z,10.40
2019-02-18T18:51:02.194Z,9.95
2019-02-18T18:53:33.261Z,12.50
2019-02-18T18:56:04.668Z,11.33
2019-02-18T18:58:35.790Z,9.80
2019-02-18T19:01:06.922Z,9.30
2019-02-18T19:03:37.995Z,12.60
2019-02-18T19:06:09.110Z,9.00
2019-02-18T19:08:40.208Z,9.58
2019-02-18T19:11:11.310Z,9.70
2019-02-18T19:13:42.391Z,12.65
2019-02-18T19:16:13.517Z,9.93
2019-02-18T19:18:44.581Z,10.45
2019-02-18T19:21:15.647Z,10.65
2019-02-18T19:23:46.864Z,10.32
2019-02-18T19:26:17.976Z,11.57
2019-02-18T19:28:49.046Z,11.83
2019-02-18T19:31:20.107Z,12.53
2019-02-18T19:33:51.419Z,7.78
2019-02-18T19:36:22.474Z,8.00
2019-02-18T19:38:53.536Z,5.67
2019-02-18T19:41:24.581Z,6.05
2019-02-18T19:43:55.709Z,5.30
2019-02-18T19:46:26.763Z,5.12
2019-02-18T19:48:57.815Z,5.50
2019-02-18T19:51:28.950Z,4.05
2019-02-18T19:54:00.989Z,6.40
2019-02-18T19:56:32.053Z,5.67
2019-02-18T19:59:03.086Z,5.50
2019-02-18T20:01:34.161Z,6.22
2019-02-18T20:04:05.200Z,5.17
2019-02-18T20:06:36.262Z,6.35
2019-02-18T20:09:09.167Z,6.33
2019-02-18T20:11:40.229Z,5.95
2019-02-18T20:14:11.316Z,8.83
2019-02-18T20:16:42.381Z,9.03
2019-02-18T20:19:13.419Z,12.18
2019-02-18T20:21:44.520Z,11.53
2019-02-18T20:24:17.197Z,12.68
2019-02-18T20:26:48.653Z,12.07
2019-02-18T20:29:19.802Z,9.80
2019-02-18T20:31:50.854Z,9.78
2019-02-18T20:34:21.925Z,8.73
2019-02-18T20:36:53.015Z,8.73
2019-02-18T20:39:25.053Z,7.30
2019-02-18T20:41:56.232Z,7.65
2019-02-18T20:44:27.285Z,7.42
2019-02-18T20:46:58.405Z,8.50
2019-02-18T20:49:29.575Z,8.20
2019-02-18T20:52:00.657Z,7.37
2019-02-18T20:54:31.728Z,8.73
2019-02-18T20:57:02.767Z,7.55
2019-02-18T20:59:33.832Z,7.58
2019-02-18T21:02:04.870Z,8.68
2019-02-18T21:04:35.937Z,8.23
2019-02-18T21:07:07.073Z,7.22
2019-02-18T21:09:38.151Z,7.42
2019-02-18T21:12:09.262Z,8.45
2019-02-18T21:14:40.377Z,7.45
2019-02-18T21:17:11.497Z,8.88
2019-02-18T21:19:42.638Z,7.22
2019-02-18T21:22:13.746Z,7.35
2019-02-18T21:24:44.874Z,8.15
2019-02-18T21:27:15.859Z,8.05
2019-02-18T21:29:47.219Z,9.70
2019-02-18T21:32:18.372Z,9.13
2019-02-18T21:34:49.883Z,11.25
2019-02-18T21:37:21.025Z,10.15
2019-02-18T21:39:52.099Z,10.08
2019-02-18T21:42:23.591Z,9.78
2019-02-18T21:44:55.827Z,10.00
2019-02-18T21:47:26.948Z,9.90
2019-02-18T21:49:58.087Z,10.03
2019-02-18T21:52:29.140Z,10.90
2019-02-18T21:55:00.506Z,11.63
2019-02-18T21:57:31.620Z,9.33
2019-02-18T22:00:02.791Z,8.00
2019-02-18T22:02:33.862Z,8.28
2019-02-18T22:05:05.344Z,8.45
2019-02-18T22:07:36.768Z,9.70
2019-02-18T22:10:09.784Z,10.18
2019-02-18T22:12:40.896Z,9.55
2019-02-18T22:15:14.468Z,8.93
2019-02-18T22:17:45.580Z,9.33
2019-02-18T22:20:17.041Z,8.60
2019-02-18T22:22:48.156Z,9.95
2019-02-18T22:25:19.229Z,9.20
2019-02-18T22:27:50.314Z,9.38
2019-02-18T22:30:21.411Z,10.00
2019-02-18T22:32:53.489Z,10.23
2019-02-18T22:35:24.477Z,12.07
2019-02-18T22:37:55.563Z,11.35
2019-02-18T22:40:26.611Z,10.45
2019-02-18T22:42:57.765Z,11.55
2019-02-18T22:45:28.841Z,12.82
2019-02-18T22:48:00.196Z,11.95
2019-02-18T22:50:31.173Z,11.25
2019-02-18T22:53:02.602Z,11.35
2019-02-18T22:55:33.750Z,12.18
2019-02-18T22:58:05.017Z,11.50
2019-02-18T23:00:53.493Z,11.10
2019-02-18T23:03:24.931Z,11.00
2019-02-18T23:05:56.059Z,11.73
2019-02-18T23:08:27.249Z,9.85
2019-02-18T23:10:58.404Z,10.72
2019-02-18T23:13:29.661Z,11.40
2019-02-18T23:16:00.751Z,10.03
2019-02-18T23:18:31.926Z,9.03
2019-02-18T23:21:03.151Z,9.38
2019-02-18T23:23:34.294Z,5.40
2019-02-18T23:26:05.632Z,6.95
2019-02-18T23:28:36.693Z,4.10
2019-02-18T23:31:07.750Z,4.25
2019-02-18T23:33:38.874Z,4.50
2019-02-18T23:36:09.948Z,3.52
2019-02-18T23:38:43.982Z,4.37
2019-02-18T23:41:18.574Z,4.33
2019-02-18T23:43:51.223Z,3.65
2019-02-18T23:46:22.307Z,3.40
2019-02-18T23:48:56.623Z,2.90
2019-02-18T23:51:27.744Z,3.05
2019-02-18T23:53:58.770Z,3.00
2019-02-18T23:56:29.825Z,2.22
2019-02-18T23:59:00.801Z,2.40
